Time;durP1;ratioP1;P1;durP2;ratioP2;P2;SDS_P1;SDS_P2;PMS_P1;PMS_P2;Temp;Humidity;BMP_temperature;BMP_pressure;BME280_temperature;BME280_humidity;BME280_pressure;Samples;Min_cycle;Max_cycle;Signal;HPM_P1;HPM_P2
2022/07/21 00:01:58;;;;;;;3.20;0.10;;;;;;;17.00;63.13;100226.30;1695807;83;20105;-68
2022/07/21 00:04:25;;;;;;;7.12;0.20;;;;;;;17.00;63.13;100226.30;1692720;84;21054;-68
2022/07/21 00:07:00;;;;;;;1.65;0.10;;;;;;;16.97;62.84;100227.30;1692106;83;21483;-68
2022/07/21 00:09:28;;;;;;;3.02;0.20;;;;;;;16.96;62.69;100227.02;1696909;83;21021;-69
2022/07/21 00:11:53;;;;;;;;;;;;;;;16.97;62.64;100228.64;1697683;83;21505;-69
2022/07/21 00:14:20;;;;;;;1.47;0.10;;;;;;;16.97;62.48;100225.95;1698711;83;20101;-73
2022/07/21 00:16:48;;;;;;;;;;;;;;;16.88;62.63;100229.00;1700654;83;21086;-69
2022/07/21 00:19:15;;;;;;;1.07;0.30;;;;;;;16.85;62.35;100226.76;1692506;83;20142;-68
2022/07/21 00:21:41;;;;;;;0.37;0.20;;;;;;;16.77;62.55;100223.58;1701155;83;21042;-69
2022/07/21 00:24:07;;;;;;;0.72;0.20;;;;;;;16.73;62.55;100224.03;1696214;83;21069;-70
2022/07/21 00:26:33;;;;;;;;;;;;;;;16.71;62.34;100225.33;1695551;83;21176;-70
2022/07/21 00:29:00;;;;;;;2.27;0.10;;;;;;;16.69;62.12;100230.12;1695956;83;20186;-69
2022/07/21 00:31:26;;;;;;;;;;;;;;;16.58;62.39;100230.91;1698453;83;21129;-68
2022/07/21 00:33:53;;;;;;;3.42;0.10;;;;;;;16.53;62.60;100228.89;1700422;83;20408;-68
2022/07/21 00:36:21;;;;;;;2.05;0.30;;;;;;;16.45;62.51;100235.43;1706383;83;21066;-69
2022/07/21 00:38:47;;;;;;;1.00;0.17;;;;;;;16.44;62.26;100232.96;1698921;83;21034;-69
2022/07/21 00:41:14;;;;;;;1.77;0.20;;;;;;;16.43;62.05;100226.77;1667300;84;21122;-70
2022/07/21 00:43:41;;;;;;;3.02;0.20;;;;;;;16.41;61.51;100227.53;1693789;83;21013;-69
2022/07/21 00:46:08;;;;;;;1.00;0.10;;;;;;;16.37;61.63;100226.85;1648396;85;21572;-69
2022/07/21 00:48:35;;;;;;;2.92;0.33;;;;;;;16.32;61.68;100225.67;1693697;83;21066;-68
2022/07/21 00:51:01;;;;;;;1.67;0.20;;;;;;;16.30;61.97;100227.78;1690375;83;21089;-69
2022/07/21 00:53:27;;;;;;;1.00;0.20;;;;;;;16.29;61.74;100234.22;1706335;83;21062;-68
2022/07/21 00:55:53;;;;;;;;;;;;;;;16.26;61.40;100228.48;1699266;83;21073;-68
2022/07/21 00:58:23;;;;;;;0.63;0.40;;;;;;;16.24;61.67;100228.70;1699024;83;20192;-69
2022/07/21 01:00:50;;;;;;;2.83;0.30;;;;;;;16.15;61.88;100226.84;1696326;82;20994;-67
2022/07/21 01:03:16;;;;;;;0.37;0.20;;;;;;;16.12;61.79;100224.63;1702547;83;21820;-71
2022/07/21 01:05:43;;;;;;;5.58;0.30;;;;;;;16.10;61.83;100226.70;1653765;84;21009;-69
2022/07/21 01:08:09;;;;;;;1.95;0.30;;;;;;;16.10;61.72;100227.23;1690345;84;21018;-68
2022/07/21 01:10:37;;;;;;;1.62;0.20;;;;;;;16.08;62.00;100224.77;1686379;83;21095;-68
2022/07/21 01:13:05;;;;;;;2.62;0.53;;;;;;;16.07;62.04;100225.02;1643629;85;20985;-67
2022/07/21 01:15:31;;;;;;;0.70;0.20;;;;;;;16.06;62.06;100229.55;1702412;83;21010;-68
2022/07/21 01:17:58;;;;;;;0.53;0.15;;;;;;;16.04;61.93;100231.64;1700379;83;21514;-68
2022/07/21 01:20:25;;;;;;;;;;;;;;;16.00;61.94;100225.62;1714190;83;21001;-68
2022/07/21 01:22:55;;;;;;;2.80;0.50;;;;;;;15.98;62.17;100224.50;1712180;82;20470;-68
2022/07/21 01:25:23;;;;;;;4.30;0.30;;;;;;;15.89;62.27;100221.28;1688580;83;20998;-68
2022/07/21 01:27:50;;;;;;;3.95;0.40;;;;;;;15.85;62.34;100224.66;1685996;83;21538;-67
2022/07/21 01:30:17;;;;;;;1.27;0.35;;;;;;;15.80;62.30;100225.86;1693030;83;21049;-66
2022/07/21 01:32:45;;;;;;;1.47;0.50;;;;;;;15.77;62.42;100225.80;1655824;85;21589;-70
2022/07/21 01:35:14;;;;;;;3.47;0.20;;;;;;;15.74;62.70;100214.95;1698404;83;21129;-69
2022/07/21 01:37:46;;;;;;;2.75;0.17;;;;;;;15.70;62.33;100217.77;1695069;83;21095;-67
2022/07/21 01:43:00;;;;;;;1.20;0.20;;;;;;;15.67;62.49;100211.52;1691527;83;21093;-70
2022/07/21 01:45:28;;;;;;;0.95;0.20;;;;;;;15.62;62.60;100212.70;1696463;83;21012;-67
2022/07/21 01:47:55;;;;;;;0.55;0.13;;;;;;;15.60;62.89;100209.43;1694836;84;21078;-69
2022/07/21 01:50:31;;;;;;;1.17;0.20;;;;;;;15.60;62.79;100216.67;1693030;84;21089;-68
2022/07/21 01:52:58;;;;;;;2.08;0.40;;;;;;;15.59;62.79;100211.80;1656239;85;21049;-69
2022/07/21 01:55:26;;;;;;;1.32;0.30;;;;;;;15.60;62.77;100204.05;1695522;84;21056;-67
2022/07/21 01:57:53;;;;;;;2.10;0.20;;;;;;;15.59;62.76;100207.77;1694993;84;21065;-68
2022/07/21 02:00:19;;;;;;;0.78;0.40;;;;;;;15.59;62.78;100207.77;1694332;83;21623;-67
2022/07/21 02:02:45;;;;;;;3.60;0.42;;;;;;;15.59;62.90;100210.45;1693407;84;21502;-68
2022/07/21 02:05:14;;;;;;;2.50;0.45;;;;;;;15.57;62.81;100207.99;1696791;84;21074;-72
2022/07/21 02:07:40;;;;;;;4.90;0.30;;;;;;;15.22;62.88;100155.42;1695034;84;20999;-67
2022/07/21 02:10:08;;;;;;;1.65;0.20;;;;;;;15.56;62.80;100209.58;1695467;84;21190;-72
2022/07/21 02:12:34;;;;;;;2.55;0.10;;;;;;;15.54;62.76;100208.99;1666164;84;21556;-68
2022/07/21 02:15:02;;;;;;;1.10;0.20;;;;;;;15.52;62.88;100198.97;1716786;83;21098;-69
2022/07/21 02:17:28;;;;;;;0.65;0.40;;;;;;;15.50;62.80;100203.24;1712373;83;21026;-73
2022/07/21 02:19:54;;;;;;;1.22;0.20;;;;;;;15.48;63.16;100203.15;1716150;82;21115;-68
2022/07/21 02:22:20;;;;;;;2.45;0.75;;;;;;;15.46;63.39;100195.84;1712649;83;21034;-73
2022/07/21 02:24:46;;;;;;;1.10;0.42;;;;;;;15.06;63.81;100148.75;1711817;83;21034;-69
2022/07/21 02:27:14;;;;;;;2.60;0.28;;;;;;;15.46;64.56;100199.87;1712625;83;20992;-68
2022/07/21 02:29:41;;;;;;;0.65;0.30;;;;;;;15.50;65.65;100195.69;1717933;83;21033;-72
2022/07/21 02:32:10;;;;;;;1.22;0.75;;;;;;;15.55;63.70;100198.00;1707899;83;21559;-68
2022/07/21 02:34:38;;;;;;;4.28;0.65;;;;;;;15.56;63.66;100194.81;1710561;83;21634;-68
2022/07/21 02:37:04;;;;;;;2.30;0.47;;;;;;;15.56;65.01;100192.13;1716004;83;21125;-68
2022/07/21 02:39:30;;;;;;;2.08;0.72;;;;;;;15.60;64.91;100190.63;1706014;83;22105;-67
2022/07/21 02:41:56;;;;;;;2.40;0.25;;;;;;;15.64;64.87;100190.47;1714447;83;21804;-67
2022/07/21 02:44:23;;;;;;;1.17;0.68;;;;;;;15.66;63.68;100192.41;1713765;83;21046;-68
2022/07/21 02:46:49;;;;;;;1.22;0.70;;;;;;;15.67;65.23;100193.21;1713090;83;21034;-68
2022/07/21 02:49:15;;;;;;;;;;;;;;;15.67;65.14;100188.69;1716821;83;21014;-67
2022/07/21 02:51:42;;;;;;;1.35;1.05;;;;;;;15.72;63.70;100192.83;1711373;83;20121;-67
2022/07/21 02:54:08;;;;;;;0.80;0.80;;;;;;;15.69;64.79;100190.62;1715078;83;21427;-68
2022/07/21 02:56:34;;;;;;;1.70;0.72;;;;;;;15.74;64.03;100182.70;1708831;83;20939;-68
2022/07/21 02:59:00;;;;;;;4.42;4.12;;;;;;;15.83;65.40;100181.89;1708593;83;21030;-68
2022/07/21 03:01:29;;;;;;;4.35;0.65;;;;;;;16.07;66.35;100187.38;1709943;83;21118;-71
2022/07/21 03:03:56;;;;;;;1.42;1.17;;;;;;;16.57;62.65;100176.79;1713488;83;21047;-68
2022/07/21 03:06:22;;;;;;;1.07;0.80;;;;;;;17.11;60.17;100176.20;1712617;83;21330;-67
2022/07/21 03:08:50;;;;;;;2.80;2.08;;;;;;;17.70;58.99;100166.64;1711851;83;21112;-68
2022/07/21 03:11:17;;;;;;;1.95;0.68;;;;;;;18.26;59.95;100168.25;1713322;83;21065;-70
2022/07/21 03:13:43;;;;;;;;;;;;;;;18.89;55.07;100176.30;1713116;83;21056;-68
2022/07/21 03:16:10;;;;;;;2.37;0.60;;;;;;;19.40;53.15;100170.25;1702691;84;20101;-68
2022/07/21 03:18:38;;;;;;;4.00;1.10;;;;;;;19.75;50.65;100171.25;1705569;84;21096;-68
2022/07/21 03:21:05;;;;;;;1.10;0.40;;;;;;;20.08;50.55;100163.20;1706642;84;21042;-69
2022/07/21 03:23:32;;;;;;;3.65;0.78;;;;;;;20.40;48.77;100164.60;1712525;82;21028;-73
2022/07/21 03:25:59;;;;;;;1.15;0.60;;;;;;;20.63;48.15;100164.81;1713098;84;21479;-69
2022/07/21 03:28:26;;;;;;;3.02;0.50;;;;;;;20.90;46.55;100174.75;1696410;84;21550;-69
2022/07/21 03:30:53;;;;;;;3.90;0.65;;;;;;;21.18;45.82;100173.56;1710255;84;20995;-69
2022/07/21 03:33:20;;;;;;;3.08;0.82;;;;;;;21.45;45.09;100173.98;1711047;84;20999;-68
2022/07/21 03:35:48;;;;;;;1.60;0.30;;;;;;;21.55;44.61;100168.63;1711612;84;20995;-69
2022/07/21 03:38:15;;;;;;;1.15;0.40;;;;;;;21.67;44.92;100171.09;1713089;84;21047;-68
2022/07/21 03:40:41;;;;;;;1.75;0.42;;;;;;;21.93;44.20;100164.66;1711675;84;21069;-70
2022/07/21 03:43:12;;;;;;;4.42;0.53;;;;;;;22.12;43.60;100170.39;1712477;84;21039;-69
2022/07/21 03:45:40;;;;;;;2.00;0.30;;;;;;;22.32;43.13;100166.92;1667989;83;21003;-69
2022/07/21 03:48:08;;;;;;;0.30;0.20;;;;;;;22.53;42.72;100159.59;1650112;86;21026;-69
2022/07/21 03:50:38;;;;;;;3.12;0.40;;;;;;;22.58;41.79;100160.66;1653176;86;21078;-70
2022/07/21 03:53:05;;;;;;;2.42;0.50;;;;;;;22.62;42.65;100155.79;1656417;86;21065;-69
2022/07/21 03:55:32;;;;;;;0.98;0.60;;;;;;;22.88;42.02;100160.62;1644322;86;21074;-69
2022/07/21 03:58:03;;;;;;;1.32;0.37;;;;;;;23.19;42.03;100157.04;1663089;86;21502;-72
2022/07/21 04:00:36;;;;;;;3.05;0.82;;;;;;;23.56;40.73;100153.10;1655603;86;21065;-70
2022/07/21 04:03:04;;;;;;;1.30;0.40;;;;;;;23.78;40.24;100151.36;1655451;86;20991;-68
2022/07/21 04:05:31;;;;;;;2.10;0.62;;;;;;;23.92;39.62;100144.21;1656883;86;21018;-69
2022/07/21 04:07:58;;;;;;;2.80;0.82;;;;;;;24.00;39.28;100142.27;1649527;86;21093;-69
2022/07/21 04:10:28;;;;;;;5.22;3.50;;;;;;;24.06;39.79;100142.50;1649841;86;21153;-68
2022/07/21 04:12:57;;;;;;;3.95;1.52;;;;;;;24.34;40.10;100144.20;1653026;85;21023;-70
2022/07/21 04:15:24;;;;;;;1.40;0.28;;;;;;;24.69;38.69;100145.00;1706554;82;21038;-70
2022/07/21 04:17:51;;;;;;;1.22;0.50;;;;;;;24.71;38.04;100144.72;1711536;82;20971;-69
2022/07/21 04:20:18;;;;;;;3.33;0.33;;;;;;;24.68;38.10;100148.84;1712755;82;20961;-69
2022/07/21 04:22:46;;;;;;;2.45;0.62;;;;;;;24.46;38.02;100105.69;1700587;82;21461;-69
2022/07/21 04:25:14;;;;;;;0.98;0.20;;;;;;;24.67;37.91;100149.92;1710495;82;21407;-69
2022/07/21 04:27:41;;;;;;;0.78;0.30;;;;;;;24.43;38.00;100155.28;1707121;82;21006;-69
2022/07/21 04:30:12;;;;;;;1.40;0.68;;;;;;;24.31;38.90;100156.21;1708407;82;21545;-70
2022/07/21 04:32:38;;;;;;;1.12;0.85;;;;;;;24.34;38.74;100153.73;1708806;82;20977;-74
2022/07/21 04:35:07;;;;;;;1.02;0.30;;;;;;;24.36;38.72;100152.89;1704147;82;21484;-76
2022/07/21 04:37:35;;;;;;;2.10;0.80;;;;;;;24.33;38.22;100155.37;1702935;82;21560;-76
2022/07/21 04:40:03;;;;;;;4.00;1.05;;;;;;;24.47;38.91;100155.00;1706548;82;21039;-75
2022/07/21 04:42:30;;;;;;;2.67;0.20;;;;;;;24.67;38.27;100151.28;1714084;82;21495;-78
2022/07/21 04:44:57;;;;;;;0.88;0.15;;;;;;;24.83;37.61;100153.33;1719589;82;21033;-75
2022/07/21 04:47:23;;;;;;;1.32;0.40;;;;;;;24.85;37.70;100149.20;1701702;82;21120;-78
2022/07/21 04:49:50;;;;;;;1.87;0.33;;;;;;;24.90;37.61;100145.59;1708673;82;21120;-72
2022/07/21 04:52:17;;;;;;;2.58;0.20;;;;;;;24.98;38.12;100148.27;1704355;82;21080;-75
2022/07/21 04:54:43;;;;;;;1.85;0.10;;;;;;;25.28;37.36;100147.67;1708582;82;21160;-77
2022/07/21 04:57:09;;;;;;;1.10;0.80;;;;;;;25.47;36.92;100147.70;1708522;82;21046;-75
2022/07/21 04:59:36;;;;;;;2.17;0.62;;;;;;;25.51;37.41;100151.50;1710016;82;21517;-72
2022/07/21 05:02:04;;;;;;;0.55;0.30;;;;;;;25.62;36.83;100148.89;1708526;82;21025;-75
2022/07/21 05:04:31;;;;;;;1.85;1.72;;;;;;;25.58;36.74;100150.56;1701579;82;21041;-72
2022/07/21 05:06:58;;;;;;;2.33;0.20;;;;;;;25.44;37.98;100143.66;1703373;82;21026;-71
2022/07/21 05:09:24;;;;;;;4.05;1.37;;;;;;;25.35;37.33;100142.68;1715724;82;21153;-73
2022/07/21 05:11:51;;;;;;;5.17;1.60;;;;;;;25.25;37.69;100143.62;1709295;82;20978;-75
2022/07/21 05:14:17;;;;;;;1.52;0.30;;;;;;;25.14;38.83;100148.91;1715079;82;21152;-74
2022/07/21 05:16:43;;;;;;;1.52;0.33;;;;;;;25.06;37.84;100147.62;1717134;82;21733;-74
2022/07/21 05:19:10;;;;;;;4.03;0.45;;;;;;;25.00;38.30;100141.42;1709309;82;21017;-75
2022/07/21 05:21:37;;;;;;;3.15;0.47;;;;;;;25.26;37.79;100150.72;1710958;82;21070;-73
2022/07/21 05:24:04;;;;;;;0.85;0.20;;;;;;;25.33;37.38;100149.78;1711232;82;21078;-70
2022/07/21 05:26:31;;;;;;;1.02;0.90;;;;;;;25.16;37.47;100146.70;1708931;82;21044;-69
2022/07/21 05:28:58;;;;;;;0.68;0.23;;;;;;;24.92;38.33;100143.95;1704030;82;21025;-69
2022/07/21 05:31:24;;;;;;;4.37;0.72;;;;;;;24.76;38.54;100137.86;1706771;82;21053;-69
2022/07/21 05:33:50;;;;;;;3.20;2.05;;;;;;;24.81;38.75;100139.18;1705906;82;21132;-67
2022/07/21 05:36:18;;;;;;;1.15;0.93;;;;;;;25.06;39.08;100136.16;1707791;82;21572;-70
2022/07/21 05:38:44;;;;;;;2.30;0.85;;;;;;;25.28;38.08;100135.39;1705703;82;21128;-72
2022/07/21 05:41:10;;;;;;;3.70;0.45;;;;;;;25.30;37.60;100134.02;1708578;82;21069;-69
2022/07/21 05:43:37;;;;;;;2.08;0.42;;;;;;;25.19;38.04;100139.30;1705988;82;21053;-79
2022/07/21 05:46:03;;;;;;;4.87;4.37;;;;;;;25.14;38.13;100138.00;1705424;82;21589;-70
2022/07/21 05:48:29;;;;;;;3.77;1.87;;;;;;;24.86;39.57;100124.11;1703830;82;21065;-68
2022/07/21 05:50:56;;;;;;;3.90;1.55;;;;;;;25.00;38.68;100128.34;1710301;82;21065;-70
2022/07/21 05:53:23;;;;;;;5.35;0.70;;;;;;;25.27;39.27;100127.77;1716154;82;21092;-68
2022/07/21 05:55:49;;;;;;;1.75;0.33;;;;;;;25.39;37.99;100132.27;1699575;82;21085;-65
2022/07/21 05:58:16;;;;;;;3.42;0.93;;;;;;;25.46;37.46;100130.53;1699680;82;21493;-71
2022/07/21 06:00:42;;;;;;;4.33;2.47;;;;;;;25.29;38.21;100132.38;1685667;84;21544;-78
2022/07/21 06:03:09;;;;;;;3.70;1.50;;;;;;;25.17;37.92;100124.59;1692325;85;21025;-78
2022/07/21 06:05:35;;;;;;;1.75;0.53;;;;;;;25.25;38.03;100125.33;1687692;85;21037;-69
2022/07/21 06:08:01;;;;;;;1.75;0.50;;;;;;;25.31;37.81;100124.72;1683477;85;21001;-70
2022/07/21 06:10:29;;;;;;;0.37;0.10;;;;;;;25.52;37.53;100116.27;1693696;85;21105;-68
2022/07/21 06:12:55;;;;;;;3.25;2.40;;;;;;;25.74;37.07;100118.42;1693794;85;21004;-63
2022/07/21 06:15:22;;;;;;;1.05;0.40;;;;;;;25.83;38.09;100119.39;1692960;85;21043;-66
2022/07/21 06:17:48;;;;;;;2.55;0.62;;;;;;;26.01;37.31;100111.77;1694262;84;21560;-65
2022/07/21 06:20:14;;;;;;;0.70;0.40;;;;;;;26.14;36.85;100112.91;1689652;83;21136;-64
2022/07/21 06:22:42;;;;;;;0.85;0.40;;;;;;;26.15;36.32;100111.02;1696625;83;21021;-64
2022/07/21 06:25:10;;;;;;;0.33;0.10;;;;;;;25.96;36.89;100113.77;1705910;84;21052;-65
2022/07/21 06:27:36;;;;;;;4.72;0.15;;;;;;;26.01;36.87;100112.30;1711011;84;21579;-66
2022/07/21 06:30:04;;;;;;;5.53;0.30;;;;;;;25.99;36.01;100115.89;1709546;84;21046;-68
2022/07/21 06:32:32;;;;;;;3.58;0.13;;;;;;;25.87;36.33;100114.16;1711103;84;21012;-65
2022/07/21 06:34:58;;;;;;;0.45;0.10;;;;;;;25.79;36.43;100107.45;1711213;82;20986;-67
2022/07/21 06:37:24;;;;;;;1.98;1.35;;;;;;;25.67;36.21;100108.42;1708450;84;20982;-65
2022/07/21 06:39:51;;;;;;;1.75;0.20;;;;;;;25.64;36.85;100105.74;1698736;84;21088;-66
2022/07/21 06:42:17;;;;;;;0.30;0.20;;;;;;;25.68;36.41;100100.51;1709726;84;21594;-68
2022/07/21 06:44:43;;;;;;;5.87;0.23;;;;;;;25.78;36.23;100090.23;1709616;83;21025;-69
2022/07/21 06:47:10;;;;;;;3.00;0.30;;;;;;;25.90;36.11;100102.62;1706529;83;21021;-70
2022/07/21 06:49:37;;;;;;;1.12;0.10;;;;;;;25.98;35.35;100083.69;1710875;83;21064;-72
2022/07/21 06:52:04;;;;;;;1.30;0.30;;;;;;;26.04;35.79;100096.70;1711169;83;21581;-73
2022/07/21 06:54:31;;;;;;;0.93;0.10;;;;;;;26.10;35.80;100101.53;1711095;83;21053;-67
2022/07/21 06:56:57;;;;;;;1.57;1.47;;;;;;;26.00;35.86;100085.56;1711520;82;21038;-69
2022/07/21 06:59:23;;;;;;;3.00;0.20;;;;;;;25.93;36.74;100091.14;1706001;83;21584;-70
2022/07/21 07:01:50;;;;;;;0.70;0.10;;;;;;;26.03;36.33;100093.17;1710654;84;20999;-69
2022/07/21 07:04:17;;;;;;;0.88;0.15;;;;;;;26.03;35.54;100084.98;1712842;83;21132;-70
2022/07/21 07:06:43;;;;;;;0.72;0.10;;;;;;;26.05;35.68;100089.31;1709631;83;21038;-71
2022/07/21 07:09:11;;;;;;;1.25;0.10;;;;;;;25.94;35.46;100079.94;1709575;84;21508;-76
2022/07/21 07:11:39;;;;;;;1.07;0.30;;;;;;;25.90;35.95;100084.34;1640370;86;21048;-71
2022/07/21 07:14:05;;;;;;;1.22;0.50;;;;;;;26.04;35.66;100076.22;1709221;84;21061;-72
2022/07/21 07:16:31;;;;;;;0.68;0.00;;;;;;;25.93;36.47;100078.30;1711242;83;21814;-71
2022/07/21 07:18:57;;;;;;;4.90;0.17;;;;;;;25.76;36.00;100069.80;1711350;84;21085;-74
2022/07/21 07:21:24;;;;;;;0.70;0.70;;;;;;;25.60;36.39;100074.13;1712009;82;21100;-71
2022/07/21 07:23:51;;;;;;;0.60;0.20;;;;;;;25.58;36.95;100080.44;1695329;82;21052;-71
2022/07/21 07:26:19;;;;;;;0.45;0.10;;;;;;;25.67;36.33;100072.38;1710468;84;21081;-72
2022/07/21 07:28:45;;;;;;;1.00;0.33;;;;;;;25.64;36.25;100068.90;1710194;84;21085;-72
2022/07/21 07:31:12;;;;;;;0.53;0.00;;;;;;;25.61;36.53;100066.19;1696899;83;21049;-75
2022/07/21 07:33:38;;;;;;;0.80;0.20;;;;;;;25.60;35.10;100059.12;1710800;82;21134;-72
2022/07/21 07:36:06;;;;;;;3.52;0.10;;;;;;;25.52;35.09;100065.78;1710342;83;21041;-72
2022/07/21 07:38:32;;;;;;;1.77;0.10;;;;;;;25.49;35.24;100069.92;1711304;84;21684;-70
2022/07/21 07:40:59;;;;;;;0.62;0.00;;;;;;;25.38;34.82;100069.25;1711447;83;21045;-70
2022/07/21 07:43:25;;;;;;;0.85;0.10;;;;;;;25.16;34.83;100076.59;1707339;83;21058;-70
2022/07/21 07:45:55;;;;;;;0.85;0.00;;;;;;;25.01;35.27;100074.86;1710799;80;20946;-71
2022/07/21 07:48:22;;;;;;;3.45;0.10;;;;;;;24.92;36.08;100068.98;1710847;84;21549;-71
2022/07/21 07:50:48;;;;;;;0.98;0.28;;;;;;;24.81;36.01;100071.84;1711131;83;21002;-70
2022/07/21 07:53:14;;;;;;;4.40;0.00;;;;;;;24.64;36.61;100066.84;1711624;84;21149;-72
2022/07/21 07:55:41;;;;;;;1.00;0.05;;;;;;;24.56;36.13;100059.28;1709169;84;21029;-71
2022/07/21 07:58:08;;;;;;;0.30;0.10;;;;;;;24.49;35.91;100062.89;1702920;84;21514;-71
2022/07/21 08:00:34;;;;;;;1.60;0.20;;;;;;;24.41;36.20;100063.50;1711147;82;21076;-71
2022/07/21 08:03:02;;;;;;;0.75;0.00;;;;;;;24.36;36.81;100042.59;1708072;84;21033;-72
2022/07/21 08:05:29;;;;;;;4.95;0.62;;;;;;;24.36;36.78;100064.93;1694948;84;21569;-71
2022/07/21 08:07:56;;;;;;;0.53;0.00;;;;;;;24.26;37.09;100054.39;1711504;84;21006;-73
2022/07/21 08:10:23;;;;;;;0.30;0.10;;;;;;;24.14;37.30;100040.89;1711215;83;21045;-68
2022/07/21 08:12:50;;;;;;;0.88;0.10;;;;;;;24.12;37.45;100042.53;1708219;83;21041;-70
2022/07/21 08:15:16;;;;;;;0.53;0.10;;;;;;;24.16;37.34;100031.33;1711094;84;21124;-70
2022/07/21 08:17:42;;;;;;;2.35;0.37;;;;;;;24.15;36.81;100048.78;1710207;83;21527;-68
2022/07/21 08:20:11;;;;;;;2.30;1.12;;;;;;;24.06;37.12;100053.20;1711105;82;21633;-69
2022/07/21 08:22:37;;;;;;;1.20;0.00;;;;;;;23.98;37.21;100049.19;1698169;82;21093;-70
2022/07/21 08:25:05;;;;;;;1.20;0.10;;;;;;;23.98;37.55;100041.02;1675006;85;21138;-70
2022/07/21 08:27:33;;;;;;;1.75;0.05;;;;;;;24.07;37.44;100024.34;1682689;85;21093;-69
2022/07/21 08:29:59;;;;;;;3.00;0.13;;;;;;;24.19;37.38;100034.84;1678924;85;21038;-67
2022/07/21 08:32:25;;;;;;;0.50;0.10;;;;;;;24.31;37.38;100028.20;1675464;85;21612;-67
2022/07/21 08:34:53;;;;;;;0.88;0.03;;;;;;;24.40;37.88;100028.65;1686956;84;21111;-68
2022/07/21 08:37:20;;;;;;;0.80;0.08;;;;;;;24.54;37.30;100029.35;1692484;85;21076;-67
2022/07/21 08:39:48;;;;;;;1.12;0.55;;;;;;;24.59;36.73;100028.75;1693898;84;21174;-68
2022/07/21 08:42:16;;;;;;;1.22;0.50;;;;;;;24.61;37.32;100027.91;1693731;84;21068;-68
2022/07/21 08:44:43;;;;;;;0.42;0.10;;;;;;;24.66;37.44;100031.14;1689409;84;21390;-68
2022/07/21 08:47:10;;;;;;;2.92;0.00;;;;;;;24.67;36.67;100021.28;1686681;83;21077;-68
2022/07/21 08:49:39;;;;;;;2.95;0.20;;;;;;;24.54;36.65;100018.45;1641281;85;21042;-71
2022/07/21 08:52:07;;;;;;;4.28;0.10;;;;;;;24.41;37.26;100024.00;1679149;83;21587;-68
2022/07/21 08:54:34;;;;;;;1.45;0.15;;;;;;;24.35;37.48;100019.16;1677620;83;21152;-68
2022/07/21 08:57:03;;;;;;;2.52;0.00;;;;;;;24.34;37.92;99990.88;1694038;83;21062;-68
2022/07/21 08:59:29;;;;;;;0.10;0.00;;;;;;;24.36;37.69;100003.65;1696774;83;21501;-70
2022/07/21 09:01:56;;;;;;;3.83;0.20;;;;;;;24.31;37.99;100002.33;1699135;84;21559;-70
2022/07/21 09:04:27;;;;;;;2.30;0.10;;;;;;;24.27;38.46;100005.62;1699216;83;21054;-68
2022/07/21 09:07:00;;;;;;;0.20;0.10;;;;;;;24.26;38.24;100008.09;1700060;84;21018;-70
2022/07/21 09:09:29;;;;;;;1.02;0.10;;;;;;;24.26;38.82;100012.71;1700130;83;21078;-68
2022/07/21 09:11:58;;;;;;;1.12;0.78;;;;;;;24.33;38.89;100006.94;1697571;83;21018;-69
2022/07/21 09:14:31;;;;;;;2.42;0.37;;;;;;;24.42;38.87;99998.40;1697760;83;20998;-68
2022/07/21 09:17:01;;;;;;;2.58;0.13;;;;;;;24.44;38.34;99999.73;1698654;84;21057;-69
2022/07/21 09:19:35;;;;;;;0.50;0.10;;;;;;;24.43;38.56;99987.75;1696637;84;21026;-68
2022/07/21 09:22:06;;;;;;;2.60;0.10;;;;;;;24.47;38.56;99998.36;1697140;84;21029;-82
2022/07/21 09:24:39;;;;;;;2.17;0.10;;;;;;;24.51;37.90;99993.14;1700534;83;21064;-77
2022/07/21 09:27:19;;;;;;;3.65;0.13;;;;;;;24.47;37.56;99980.65;1696717;84;21009;-71
2022/07/21 09:29:55;;;;;;;3.52;0.57;;;;;;;24.46;38.18;99979.81;1674035;84;21043;-68
2022/07/21 09:32:30;;;;;;;;;;;;;;;24.54;38.39;99978.95;1699308;84;22417;-70
2022/07/21 09:35:03;;;;;;;1.77;0.10;;;;;;;24.66;37.38;99953.48;1693365;83;20195;-68
2022/07/21 09:37:31;;;;;;;2.52;0.10;;;;;;;24.64;37.82;99979.65;1688316;83;21051;-68
2022/07/21 09:40:00;;;;;;;0.20;0.10;;;;;;;24.69;37.81;99962.41;1695814;83;21081;-68
2022/07/21 09:42:30;;;;;;;0.30;0.20;;;;;;;24.77;37.80;99969.13;1686891;83;21498;-67
2022/07/21 09:45:05;;;;;;;0.53;0.10;;;;;;;24.83;37.08;99966.62;1685434;83;21164;-69
2022/07/21 09:47:33;;;;;;;1.85;0.10;;;;;;;24.80;37.13;99959.81;1684902;83;21045;-74
2022/07/21 09:50:01;;;;;;;0.45;0.10;;;;;;;24.66;37.63;99966.55;1624148;87;21054;-69
2022/07/21 09:52:37;;;;;;;1.85;0.53;;;;;;;24.64;37.84;99938.78;1693407;83;21058;-69
2022/07/21 09:55:07;;;;;;;1.80;0.13;;;;;;;24.73;37.42;99958.55;1692990;84;21498;-68
2022/07/21 09:57:34;;;;;;;1.92;0.10;;;;;;;24.83;37.55;99955.72;1690850;84;21066;-71
2022/07/21 10:00:04;;;;;;;0.57;0.30;;;;;;;24.92;37.51;99948.51;1681015;84;21113;-69
2022/07/21 10:02:33;;;;;;;2.08;0.10;;;;;;;24.98;37.58;99943.23;1693535;83;21070;-71
2022/07/21 10:05:07;;;;;;;1.75;0.20;;;;;;;24.98;36.89;99939.15;1684383;84;21406;-67
2022/07/21 10:07:42;;;;;;;1.50;1.05;;;;;;;24.98;36.87;99944.59;1684695;84;21518;-70
2022/07/21 10:10:11;;;;;;;7.95;0.10;;;;;;;24.99;37.52;99944.84;1687194;83;21449;-77
2022/07/21 10:12:39;;;;;;;1.42;0.20;;;;;;;24.93;37.32;99940.57;1691531;83;20978;-70
2022/07/21 10:15:07;;;;;;;5.00;1.62;;;;;;;24.75;37.82;99951.73;1655735;85;21521;-71
2022/07/21 10:17:36;;;;;;;2.52;0.20;;;;;;;24.54;38.23;99942.97;1656388;85;21065;-69
2022/07/21 10:20:24;;;;;;;1.75;0.23;;;;;;;24.48;38.52;99946.28;1691979;83;21645;-67
2022/07/21 10:23:35;;;;;;;2.17;0.10;;;;;;;24.50;38.47;99952.80;1686417;83;21108;-70
2022/07/21 10:26:05;;;;;;;0.25;0.10;;;;;;;24.55;38.76;99945.97;1698691;83;20990;-72
2022/07/21 10:28:32;;;;;;;0.80;0.17;;;;;;;24.68;38.69;99924.83;1698401;84;20990;-71
2022/07/21 10:31:15;;;;;;;1.45;0.60;;;;;;;24.78;38.52;99928.52;1661003;86;21108;-68
2022/07/21 10:33:52;;;;;;;1.40;0.30;;;;;;;24.87;38.55;99933.58;1697592;84;21061;-72
2022/07/21 10:36:37;;;;;;;0.72;0.20;;;;;;;24.94;38.20;99926.38;1679365;83;21648;-69
2022/07/21 10:39:16;;;;;;;2.00;0.10;;;;;;;24.99;38.15;99925.75;1697419;83;21070;-80
2022/07/21 10:41:52;;;;;;;3.40;1.00;;;;;;;25.06;38.45;99929.49;1695648;83;21633;-70
2022/07/21 10:44:33;;;;;;;0.20;0.10;;;;;;;25.19;38.68;99933.40;1704667;82;21097;-69
2022/07/21 10:47:24;;;;;;;2.05;0.15;;;;;;;25.31;38.63;99928.31;1727259;82;21042;-66
2022/07/21 10:49:57;;;;;;;0.85;0.85;;;;;;;25.38;38.27;99933.41;1721251;83;21096;-69
2022/07/21 10:54:49;;;;;;;0.68;0.30;;;;;;;25.36;38.38;99926.88;1823645;77;23008;-70
2022/07/21 10:57:27;;;;;;;0.70;0.25;;;;;;;25.24;38.76;99928.71;1703983;80;21490;-68
2022/07/21 11:00:30;;;;;;;0.25;0.10;;;;;;;25.21;38.63;99929.82;1698576;83;21543;-69
2022/07/21 11:03:08;;;;;;;1.17;0.57;;;;;;;25.20;38.78;99922.73;1694556;83;21505;-70
2022/07/21 11:05:35;;;;;;;1.05;0.42;;;;;;;25.19;38.88;99927.94;1630722;84;21033;-70
2022/07/21 11:08:16;;;;;;;1.30;0.57;;;;;;;25.16;39.35;99927.16;1700295;83;21498;-72
2022/07/21 11:10:52;;;;;;;1.12;0.42;;;;;;;25.12;39.18;99922.84;1700753;83;21143;-68
2022/07/21 11:13:25;;;;;;;2.27;2.15;;;;;;;25.08;39.21;99921.02;1730093;81;20984;-68
2022/07/21 11:15:59;;;;;;;0.50;0.50;;;;;;;25.02;39.64;99917.00;1727104;81;21048;-70
2022/07/21 11:18:30;;;;;;;1.95;0.65;;;;;;;25.07;39.61;99917.46;1731195;81;21085;-69
2022/07/21 11:21:09;;;;;;;1.27;0.40;;;;;;;25.07;39.22;99924.28;1733208;81;21009;-70
2022/07/21 11:23:46;;;;;;;2.55;0.60;;;;;;;25.09;39.60;99914.45;1724839;81;21072;-68
2022/07/21 11:26:17;;;;;;;5.58;0.88;;;;;;;25.10;39.47;99915.52;1699319;81;21049;-69
2022/07/21 11:28:45;;;;;;;3.20;1.12;;;;;;;25.16;39.67;99911.59;1711392;81;21560;-70
2022/07/21 11:31:16;;;;;;;2.27;0.50;;;;;;;25.19;39.40;99921.12;1679424;83;21063;-70
2022/07/21 11:33:46;;;;;;;1.75;0.50;;;;;;;25.24;39.54;99916.97;1685912;83;21028;-75
2022/07/21 11:36:31;;;;;;;0.68;0.53;;;;;;;25.30;39.30;99923.16;1669160;84;21060;-69
2022/07/21 11:39:04;;;;;;;1.40;0.80;;;;;;;25.27;39.63;99915.58;1683783;84;21032;-71
2022/07/21 11:41:34;;;;;;;2.15;0.60;;;;;;;25.21;39.56;99906.08;1659921;84;21037;-73